createdAt,value
2019-03-31T00:03:37.461Z,157.97
2019-03-31T00:08:40.773Z,144.30
2019-03-31T00:13:44.180Z,156.00
2019-03-31T00:18:47.706Z,152.97
2019-03-31T00:23:51.040Z,162.60
2019-03-31T00:28:54.468Z,155.00
2019-03-31T00:33:58.314Z,154.90
2019-03-31T00:39:01.798Z,141.22
2019-03-31T00:44:05.107Z,142.77
2019-03-31T00:49:08.417Z,137.57
2019-03-31T00:54:11.731Z,142.80
2019-03-31T00:59:15.036Z,139.30
2019-03-31T01:04:22.693Z,142.28
2019-03-31T01:09:29.282Z,141.77
2019-03-31T01:14:32.565Z,138.10
2019-03-31T01:19:35.903Z,131.15
2019-03-31T01:24:39.220Z,135.97
2019-03-31T01:29:42.847Z,133.82
2019-03-31T01:34:46.163Z,139.62
2019-03-31T01:39:49.521Z,137.85
2019-03-31T01:44:52.824Z,146.72
2019-03-31T01:49:56.879Z,138.18
2019-03-31T01:55:00.358Z,134.45
2019-03-31T02:00:06.483Z,133.52
2019-03-31T02:05:10.308Z,127.65
2019-03-31T02:10:13.596Z,122.58
2019-03-31T02:15:16.922Z,128.65
2019-03-31T02:20:20.248Z,131.03
2019-03-31T02:25:23.652Z,129.12
2019-03-31T02:30:26.984Z,126.65
2019-03-31T02:35:31.176Z,131.78
2019-03-31T02:40:34.659Z,126.65
2019-03-31T02:45:38.046Z,132.95
2019-03-31T02:50:48.588Z,121.82
2019-03-31T02:55:51.969Z,122.58
2019-03-31T03:00:56.021Z,121.15
2019-03-31T03:05:59.857Z,117.03
2019-03-31T03:11:03.171Z,120.70
2019-03-31T03:16:09.816Z,128.57
2019-03-31T03:21:14.483Z,135.45
2019-03-31T03:26:18.030Z,124.55
2019-03-31T03:31:21.615Z,130.87
2019-03-31T03:36:26.060Z,142.25
2019-03-31T03:41:29.465Z,132.72
2019-03-31T03:46:34.560Z,125.02
2019-03-31T03:51:37.939Z,120.60
2019-03-31T03:56:41.266Z,127.58
2019-03-31T04:01:45.241Z,118.00
2019-03-31T04:06:48.566Z,125.22
2019-03-31T04:11:51.884Z,127.80
2019-03-31T04:16:55.282Z,140.30
2019-03-31T04:21:58.688Z,126.95
2019-03-31T04:27:02.166Z,128.05
2019-03-31T04:32:05.608Z,129.93
2019-03-31T04:37:08.943Z,128.23
2019-03-31T04:42:12.263Z,131.35
2019-03-31T04:47:15.683Z,132.60
2019-03-31T04:52:19.054Z,130.10
2019-03-31T04:57:22.781Z,120.75
2019-03-31T05:02:27.412Z,121.02
2019-03-31T05:07:31.362Z,120.85
2019-03-31T05:12:35.493Z,114.47
2019-03-31T05:17:38.898Z,109.50
2019-03-31T05:22:42.299Z,107.12
2019-03-31T05:27:45.852Z,106.75
2019-03-31T05:32:49.243Z,91.85
2019-03-31T05:37:52.599Z,96.17
2019-03-31T05:42:56.005Z,101.58
2019-03-31T05:47:59.360Z,97.47
2019-03-31T05:53:03.281Z,98.27
2019-03-31T05:58:08.581Z,100.82
2019-03-31T06:03:11.683Z,94.03
2019-03-31T06:08:15.000Z,90.10
2019-03-31T06:13:20.219Z,94.20
2019-03-31T06:18:24.614Z,92.25
2019-03-31T06:23:28.811Z,95.47
2019-03-31T06:28:32.957Z,88.62
2019-03-31T06:33:37.992Z,87.12
2019-03-31T06:38:42.239Z,83.05
2019-03-31T06:43:47.898Z,75.80
2019-03-31T06:48:52.765Z,73.05
2019-03-31T06:53:56.149Z,63.15
2019-03-31T06:59:02.430Z,64.95
2019-03-31T07:04:05.880Z,61.45
2019-03-31T07:09:12.635Z,59.95
2019-03-31T07:14:18.446Z,64.32
2019-03-31T07:19:22.555Z,58.73
2019-03-31T07:24:25.977Z,54.35
2019-03-31T07:29:29.627Z,56.95
2019-03-31T07:34:34.390Z,53.48
2019-03-31T07:39:38.109Z,51.05
2019-03-31T07:44:41.605Z,51.10
2019-03-31T07:49:47.890Z,45.95
2019-03-31T07:54:52.175Z,49.48
2019-03-31T07:59:59.964Z,47.03
2019-03-31T08:05:03.932Z,41.30
2019-03-31T08:10:08.126Z,41.70
2019-03-31T08:15:12.054Z,43.28
2019-03-31T08:20:17.128Z,41.23
2019-03-31T08:25:23.534Z,42.65
2019-03-31T08:30:28.130Z,42.08
2019-03-31T08:35:46.339Z,43.13
2019-03-31T08:40:37.895Z,44.70
2019-03-31T08:45:43.298Z,43.20
2019-03-31T08:50:46.606Z,42.67
2019-03-31T08:55:50.719Z,38.78
2019-03-31T09:00:55.776Z,38.60
2019-03-31T09:06:02.699Z,39.78
2019-03-31T09:11:06.599Z,44.58
2019-03-31T09:16:09.956Z,43.02
2019-03-31T09:21:14.619Z,43.75
2019-03-31T09:26:18.389Z,45.60
2019-03-31T09:31:21.765Z,39.40
2019-03-31T09:36:26.188Z,40.12
2019-03-31T09:41:30.921Z,38.78
2019-03-31T09:46:36.745Z,39.73
2019-03-31T09:51:45.090Z,40.00
2019-03-31T09:56:50.129Z,37.63
2019-03-31T10:01:53.739Z,39.60
2019-03-31T10:06:59.556Z,36.70
2019-03-31T10:12:05.235Z,37.53
2019-03-31T10:17:12.898Z,41.35
2019-03-31T10:22:16.313Z,35.17
2019-03-31T10:27:25.759Z,36.83
2019-03-31T10:32:35.643Z,37.55
2019-03-31T10:37:39.997Z,35.95
2019-03-31T10:42:43.446Z,38.67
2019-03-31T10:47:46.891Z,29.92
2019-03-31T10:52:56.307Z,34.00
2019-03-31T10:58:10.208Z,36.20
2019-03-31T11:03:14.067Z,30.92
2019-03-31T11:08:17.737Z,31.87
2019-03-31T11:13:21.094Z,29.82
2019-03-31T11:18:25.817Z,32.05
2019-03-31T11:28:58.003Z,44.07
2019-03-31T11:34:01.912Z,36.13
2019-03-31T11:39:16.953Z,36.10
2019-03-31T11:44:22.872Z,35.55
2019-03-31T11:49:27.963Z,38.83
2019-03-31T11:54:32.420Z,38.05
2019-03-31T11:59:39.032Z,39.10
2019-03-31T12:04:42.359Z,38.48
2019-03-31T12:09:45.798Z,45.00
2019-03-31T12:15:00.650Z,38.73
2019-03-31T12:20:04.462Z,42.53
2019-03-31T12:25:08.068Z,34.70
2019-03-31T12:30:11.480Z,35.83
2019-03-31T12:35:14.986Z,36.33
2019-03-31T12:46:02.448Z,36.20
2019-03-31T12:51:07.250Z,37.53
2019-03-31T12:56:12.049Z,34.80
2019-03-31T13:01:15.952Z,39.45
2019-03-31T13:06:23.045Z,36.68
2019-03-31T13:11:33.293Z,36.50
2019-03-31T13:16:36.738Z,34.88
2019-03-31T13:21:40.990Z,36.80
2019-03-31T13:26:44.402Z,41.68
2019-03-31T13:31:49.717Z,37.38
2019-03-31T13:36:53.222Z,41.05
2019-03-31T13:41:59.168Z,47.43
2019-03-31T13:47:02.572Z,38.40
2019-03-31T13:52:06.248Z,44.58
2019-03-31T13:57:14.123Z,41.05
2019-03-31T14:02:17.854Z,40.85
2019-03-31T14:07:21.883Z,42.50
2019-03-31T14:12:25.626Z,42.30
2019-03-31T14:17:37.270Z,40.33
2019-03-31T14:22:42.745Z,34.50
2019-03-31T14:27:46.640Z,31.55
2019-03-31T14:32:53.791Z,32.80
2019-03-31T14:37:57.174Z,30.10
2019-03-31T14:43:05.597Z,23.27
2019-03-31T14:48:09.006Z,25.10
2019-03-31T14:53:13.511Z,21.48
2019-03-31T14:58:17.860Z,23.00
2019-03-31T15:03:21.990Z,26.45
2019-03-31T15:08:27.184Z,21.25
2019-03-31T15:13:30.947Z,25.40
2019-03-31T15:18:35.054Z,19.92
2019-03-31T15:23:38.507Z,25.90
2019-03-31T15:28:45.274Z,19.98
2019-03-31T15:33:47.598Z,20.80
2019-03-31T15:38:51.146Z,15.43
2019-03-31T15:43:57.169Z,18.27
2019-03-31T15:49:02.504Z,22.32
2019-03-31T15:54:07.295Z,14.33
2019-03-31T15:59:11.410Z,18.95
2019-03-31T16:04:16.182Z,11.60
2019-03-31T16:09:23.786Z,12.30
2019-03-31T16:14:25.693Z,13.08
2019-03-31T16:19:29.751Z,14.58
2019-03-31T16:24:36.456Z,8.88
2019-03-31T16:29:39.948Z,9.63
2019-03-31T16:34:43.405Z,8.10
2019-03-31T16:39:46.780Z,8.48
2019-03-31T16:44:57.890Z,13.62
2019-03-31T16:49:57.538Z,7.80
2019-03-31T16:55:01.521Z,6.08
2019-03-31T17:00:07.793Z,10.15
2019-03-31T17:05:21.562Z,7.62
2019-03-31T17:10:20.779Z,8.15
2019-03-31T17:15:25.231Z,9.53
2019-03-31T17:20:30.646Z,10.23
2019-03-31T17:25:34.034Z,10.75
2019-03-31T17:30:37.404Z,10.90
2019-03-31T17:35:40.931Z,11.75
2019-03-31T17:40:45.123Z,7.58
2019-03-31T17:45:49.328Z,12.10
2019-03-31T17:50:52.850Z,9.78
2019-03-31T17:55:56.552Z,10.05
2019-03-31T18:00:59.966Z,11.75
2019-03-31T18:06:03.928Z,13.62
2019-03-31T18:11:07.802Z,7.97
2019-03-31T18:16:12.006Z,11.28
2019-03-31T18:21:15.533Z,9.48
2019-03-31T18:26:19.331Z,10.75
2019-03-31T18:31:25.964Z,11.18
2019-03-31T18:36:36.334Z,12.10
2019-03-31T18:41:34.861Z,12.58
2019-03-31T18:46:38.238Z,12.30
2019-03-31T18:51:41.727Z,18.55
2019-03-31T18:56:59.984Z,15.13
2019-03-31T19:02:29.771Z,17.48
2019-03-31T19:18:37.317Z,13.53
2019-03-31T19:24:11.408Z,11.73
2019-03-31T19:29:35.021Z,8.60
2019-03-31T19:34:45.920Z,13.60
2019-03-31T19:40:02.465Z,11.65
2019-03-31T19:45:08.369Z,7.97
2019-03-31T19:50:35.093Z,9.55
2019-03-31T19:55:45.140Z,14.55
2019-03-31T20:00:56.247Z,10.55
2019-03-31T20:06:17.526Z,16.90
2019-03-31T20:11:25.857Z,16.15
2019-03-31T20:16:49.952Z,13.78
2019-03-31T20:21:57.718Z,18.75
2019-03-31T20:27:19.351Z,10.90
2019-03-31T20:32:40.972Z,9.35
2019-03-31T20:37:52.812Z,12.95
2019-03-31T20:54:24.039Z,11.78
2019-03-31T21:05:00.358Z,12.63
2019-03-31T21:10:08.931Z,6.00
2019-03-31T21:15:26.123Z,7.83
2019-03-31T21:26:10.870Z,9.35
2019-03-31T21:31:16.281Z,12.83
2019-03-31T21:36:37.204Z,8.03
2019-03-31T21:52:51.740Z,5.40
2019-03-31T21:58:08.100Z,8.00
2019-03-31T22:03:16.900Z,5.60
2019-03-31T22:08:30.928Z,5.28
2019-03-31T22:13:35.980Z,10.40
2019-03-31T22:18:40.074Z,8.20
2019-03-31T22:23:57.155Z,6.65
2019-03-31T22:28:49.140Z,7.95
2019-03-31T22:33:53.554Z,7.75
2019-03-31T22:38:57.599Z,5.65
2019-03-31T22:44:00.983Z,7.45
2019-03-31T22:49:05.243Z,13.83
2019-03-31T22:54:09.246Z,9.45
2019-03-31T22:59:14.248Z,11.55
2019-03-31T23:04:17.629Z,10.95
2019-03-31T23:09:21.123Z,13.05
2019-03-31T23:14:24.491Z,17.15
2019-03-31T23:19:27.793Z,13.98
2019-03-31T23:24:31.986Z,17.98
2019-03-31T23:29:35.309Z,12.63
2019-03-31T23:34:39.454Z,8.13
2019-03-31T23:39:42.763Z,10.13
2019-03-31T23:44:46.153Z,12.58
2019-03-31T23:49:49.480Z,14.38
2019-03-31T23:54:52.867Z,14.63
2019-03-31T23:59:56.179Z,16.48
